sensor_id;sensor_type;location;lat;lon;timestamp;pressure;altitude;pressure_sealevel;temperature;humidity
9935;BME280;5006;41.828;23.478;2023-03-04T00:00:53;90142.31;;;17.08;42.84
9935;BME280;5006;41.828;23.478;2023-03-04T00:01:57;90133.41;;;17.48;42.76
9935;BME280;5006;41.828;23.478;2023-03-04T00:03:03;90133.53;;;16.75;44.24
9935;BME280;5006;41.828;23.478;2023-03-04T00:04:08;90134.72;;;16.30;44.59
9935;BME280;5006;41.828;23.478;2023-03-04T00:05:15;90133.00;;;15.88;45.15
9935;BME280;5006;41.828;23.478;2023-03-04T00:06:20;90125.97;;;16.54;44.63
9935;BME280;5006;41.828;23.478;2023-03-04T00:07:26;90132.78;;;16.75;44.41
9935;BME280;5006;41.828;23.478;2023-03-04T00:08:30;90132.44;;;16.12;44.56
9935;BME280;5006;41.828;23.478;2023-03-04T00:09:35;90132.78;;;15.12;46.55
9935;BME280;5006;41.828;23.478;2023-03-04T00:10:40;90142.34;;;15.51;46.29
9935;BME280;5006;41.828;23.478;2023-03-04T00:11:46;90131.47;;;16.67;44.26
9935;BME280;5006;41.828;23.478;2023-03-04T00:12:50;90127.78;;;16.29;44.60
9935;BME280;5006;41.828;23.478;2023-03-04T00:13:56;90127.50;;;16.84;44.25
9935;BME280;5006;41.828;23.478;2023-03-04T00:15:00;90124.22;;;17.46;43.09
9935;BME280;5006;41.828;23.478;2023-03-04T00:16:06;90129.97;;;17.60;42.62
9935;BME280;5006;41.828;23.478;2023-03-04T00:17:11;90128.44;;;17.84;42.41
9935;BME280;5006;41.828;23.478;2023-03-04T00:18:16;90124.09;;;17.08;43.16
9935;BME280;5006;41.828;23.478;2023-03-04T00:19:21;90125.03;;;16.61;44.77
9935;BME280;5006;41.828;23.478;2023-03-04T00:20:28;90127.91;;;17.23;43.36
9935;BME280;5006;41.828;23.478;2023-03-04T00:21:32;90127.50;;;17.78;42.46
9935;BME280;5006;41.828;23.478;2023-03-04T00:22:38;90126.47;;;17.35;42.70
9935;BME280;5006;41.828;23.478;2023-03-04T00:23:42;90131.34;;;16.70;43.65
9935;BME280;5006;41.828;23.478;2023-03-04T00:24:48;90131.06;;;16.81;43.76
9935;BME280;5006;41.828;23.478;2023-03-04T00:25:53;90128.75;;;17.48;43.16
9935;BME280;5006;41.828;23.478;2023-03-04T00:26:59;90139.06;;;16.84;43.50
9935;BME280;5006;41.828;23.478;2023-03-04T00:28:04;90130.91;;;16.11;46.33
9935;BME280;5006;41.828;23.478;2023-03-04T00:29:09;90139.53;;;15.74;45.84
9935;BME280;5006;41.828;23.478;2023-03-04T00:30:14;90134.84;;;16.83;44.56
9935;BME280;5006;41.828;23.478;2023-03-04T00:31:20;90135.97;;;15.93;45.32
9935;BME280;5006;41.828;23.478;2023-03-04T00:32:24;90134.91;;;15.91;45.39
9935;BME280;5006;41.828;23.478;2023-03-04T00:33:30;90128.13;;;15.67;47.94
9935;BME280;5006;41.828;23.478;2023-03-04T00:34:35;90137.88;;;15.45;48.88
9935;BME280;5006;41.828;23.478;2023-03-04T00:35:41;90130.19;;;15.24;48.82
9935;BME280;5006;41.828;23.478;2023-03-04T00:36:46;90135.94;;;15.45;48.75
9935;BME280;5006;41.828;23.478;2023-03-04T00:37:52;90125.09;;;17.67;44.75
9935;BME280;5006;41.828;23.478;2023-03-04T00:38:57;90121.53;;;17.17;46.10
9935;BME280;5006;41.828;23.478;2023-03-04T00:40:04;90127.53;;;16.96;46.44
9935;BME280;5006;41.828;23.478;2023-03-04T00:41:09;90138.97;;;17.82;43.80
9935;BME280;5006;41.828;23.478;2023-03-04T00:42:15;90131.94;;;17.59;44.05
9935;BME280;5006;41.828;23.478;2023-03-04T00:43:20;90133.22;;;16.73;45.27
9935;BME280;5006;41.828;23.478;2023-03-04T00:44:25;90133.09;;;16.16;45.50
9935;BME280;5006;41.828;23.478;2023-03-04T00:45:30;90132.56;;;17.51;44.39
9935;BME280;5006;41.828;23.478;2023-03-04T00:46:36;90133.50;;;17.04;44.98
9935;BME280;5006;41.828;23.478;2023-03-04T00:47:41;90130.47;;;17.02;45.35
9935;BME280;5006;41.828;23.478;2023-03-04T00:48:46;90128.44;;;17.59;44.83
9935;BME280;5006;41.828;23.478;2023-03-04T00:49:52;90126.19;;;17.17;44.94
9935;BME280;5006;41.828;23.478;2023-03-04T00:50:58;90124.88;;;17.74;43.97
9935;BME280;5006;41.828;23.478;2023-03-04T00:52:03;90122.16;;;17.74;43.70
9935;BME280;5006;41.828;23.478;2023-03-04T00:53:09;90121.16;;;18.18;43.44
9935;BME280;5006;41.828;23.478;2023-03-04T00:54:14;90114.47;;;17.60;44.02
9935;BME280;5006;41.828;23.478;2023-03-04T00:55:21;90122.59;;;17.07;44.84
9935;BME280;5006;41.828;23.478;2023-03-04T00:56:26;90129.56;;;16.80;45.71
9935;BME280;5006;41.828;23.478;2023-03-04T00:57:33;90127.28;;;16.18;46.94
9935;BME280;5006;41.828;23.478;2023-03-04T00:58:37;90129.75;;;15.45;47.90
9935;BME280;5006;41.828;23.478;2023-03-04T00:59:44;90125.63;;;15.40;48.84
9935;BME280;5006;41.828;23.478;2023-03-04T01:00:49;90123.34;;;14.42;50.35
9935;BME280;5006;41.828;23.478;2023-03-04T01:01:56;90118.91;;;15.80;48.66
9935;BME280;5006;41.828;23.478;2023-03-04T01:03:01;90124.31;;;15.64;47.93
9935;BME280;5006;41.828;23.478;2023-03-04T01:04:06;90121.03;;;14.63;49.66
9935;BME280;5006;41.828;23.478;2023-03-04T01:05:11;90124.88;;;15.20;49.61
9935;BME280;5006;41.828;23.478;2023-03-04T01:06:18;90116.16;;;15.32;48.58
9935;BME280;5006;41.828;23.478;2023-03-04T01:07:23;90125.00;;;15.13;49.49
9935;BME280;5006;41.828;23.478;2023-03-04T01:08:28;90118.03;;;15.83;48.59
9935;BME280;5006;41.828;23.478;2023-03-04T01:09:33;90116.66;;;15.43;49.46
9935;BME280;5006;41.828;23.478;2023-03-04T01:10:40;90115.09;;;16.10;48.04
9935;BME280;5006;41.828;23.478;2023-03-04T01:11:44;90112.94;;;16.78;46.51
9935;BME280;5006;41.828;23.478;2023-03-04T01:12:50;90116.25;;;16.57;46.59
9935;BME280;5006;41.828;23.478;2023-03-04T01:13:55;90111.56;;;17.27;45.82
9935;BME280;5006;41.828;23.478;2023-03-04T01:15:01;90113.31;;;17.33;45.48
9935;BME280;5006;41.828;23.478;2023-03-04T01:16:07;90119.38;;;16.55;46.38
9935;BME280;5006;41.828;23.478;2023-03-04T01:17:14;90112.88;;;16.21;47.25
9935;BME280;5006;41.828;23.478;2023-03-04T01:18:19;90110.59;;;16.19;47.62
9935;BME280;5006;41.828;23.478;2023-03-04T01:19:25;90114.00;;;16.07;46.84
9935;BME280;5006;41.828;23.478;2023-03-04T01:20:29;90122.66;;;15.35;48.79
9935;BME280;5006;41.828;23.478;2023-03-04T01:21:36;90116.13;;;16.89;46.57
9935;BME280;5006;41.828;23.478;2023-03-04T01:22:41;90118.84;;;16.89;46.75
9935;BME280;5006;41.828;23.478;2023-03-04T01:23:47;90116.00;;;16.80;46.78
9935;BME280;5006;41.828;23.478;2023-03-04T01:24:52;90115.56;;;17.63;45.07
9935;BME280;5006;41.828;23.478;2023-03-04T01:25:58;90109.63;;;17.27;44.89
9935;BME280;5006;41.828;23.478;2023-03-04T01:27:03;90110.09;;;17.38;45.23
9935;BME280;5006;41.828;23.478;2023-03-04T01:28:08;90117.81;;;17.52;44.71
9935;BME280;5006;41.828;23.478;2023-03-04T01:29:14;90115.84;;;17.52;45.09
9935;BME280;5006;41.828;23.478;2023-03-04T01:30:20;90112.72;;;17.66;44.21
9935;BME280;5006;41.828;23.478;2023-03-04T01:31:26;90109.41;;;17.34;44.39
9935;BME280;5006;41.828;23.478;2023-03-04T01:32:31;90118.38;;;16.49;45.95
9935;BME280;5006;41.828;23.478;2023-03-04T01:33:36;90113.72;;;16.34;45.50
9935;BME280;5006;41.828;23.478;2023-03-04T01:34:41;90113.56;;;16.69;45.91
9935;BME280;5006;41.828;23.478;2023-03-04T01:35:47;90113.59;;;17.10;45.22
9935;BME280;5006;41.828;23.478;2023-03-04T01:36:53;90108.91;;;16.41;45.73
9935;BME280;5006;41.828;23.478;2023-03-04T01:37:58;90110.47;;;16.10;46.33
9935;BME280;5006;41.828;23.478;2023-03-04T01:39:04;90118.72;;;15.55;47.51
9935;BME280;5006;41.828;23.478;2023-03-04T01:40:11;90111.56;;;15.81;46.93
9935;BME280;5006;41.828;23.478;2023-03-04T01:41:18;90109.28;;;16.11;47.25
9935;BME280;5006;41.828;23.478;2023-03-04T01:42:29;90115.34;;;15.83;47.40
9935;BME280;5006;41.828;23.478;2023-03-04T01:43:35;90111.81;;;16.02;46.70
9935;BME280;5006;41.828;23.478;2023-03-04T01:44:42;90107.75;;;15.94;46.86
9935;BME280;5006;41.828;23.478;2023-03-04T01:45:50;90105.09;;;16.55;46.63
9935;BME280;5006;41.828;23.478;2023-03-04T01:46:56;90110.44;;;16.42;46.33
9935;BME280;5006;41.828;23.478;2023-03-04T01:48:02;90114.34;;;16.70;45.78
9935;BME280;5006;41.828;23.478;2023-03-04T01:49:08;90109.81;;;16.79;44.72
9935;BME280;5006;41.828;23.478;2023-03-04T01:50:19;90103.31;;;16.48;45.87
9935;BME280;5006;41.828;23.478;2023-03-04T01:51:25;90108.41;;;17.56;44.12
9935;BME280;5006;41.828;23.478;2023-03-04T01:52:31;90099.72;;;17.08;45.18
9935;BME280;5006;41.828;23.478;2023-03-04T01:53:37;90104.41;;;16.79;45.03
9935;BME280;5006;41.828;23.478;2023-03-04T01:54:42;90097.34;;;16.09;45.72
9935;BME280;5006;41.828;23.478;2023-03-04T01:55:51;90103.66;;;16.50;45.77
9935;BME280;5006;41.828;23.478;2023-03-04T01:56:56;90094.38;;;16.35;46.05
9935;BME280;5006;41.828;23.478;2023-03-04T01:58:04;90104.25;;;16.26;46.48
9935;BME280;5006;41.828;23.478;2023-03-04T01:59:11;90094.03;;;16.17;46.66
9935;BME280;5006;41.828;23.478;2023-03-04T02:00:25;90095.06;;;15.91;46.74
9935;BME280;5006;41.828;23.478;2023-03-04T02:01:29;90091.19;;;15.76;47.34
9935;BME280;5006;41.828;23.478;2023-03-04T02:02:35;90090.16;;;16.63;45.38
9935;BME280;5006;41.828;23.478;2023-03-04T02:03:39;90091.72;;;17.17;45.49
9935;BME280;5006;41.828;23.478;2023-03-04T02:04:45;90095.50;;;16.79;45.68
9935;BME280;5006;41.828;23.478;2023-03-04T02:05:51;90091.50;;;16.26;46.33
9935;BME280;5006;41.828;23.478;2023-03-04T02:06:57;90089.44;;;16.46;45.96
9935;BME280;5006;41.828;23.478;2023-03-04T02:08:08;90091.03;;;17.01;45.04
9935;BME280;5006;41.828;23.478;2023-03-04T02:09:14;90085.38;;;17.73;44.49
9935;BME280;5006;41.828;23.478;2023-03-04T02:10:19;90089.41;;;17.56;43.83
9935;BME280;5006;41.828;23.478;2023-03-04T02:11:25;90089.34;;;17.19;44.33
9935;BME280;5006;41.828;23.478;2023-03-04T02:12:30;90082.78;;;17.82;43.81
9935;BME280;5006;41.828;23.478;2023-03-04T02:13:37;90088.75;;;17.65;43.88
9935;BME280;5006;41.828;23.478;2023-03-04T02:14:42;90087.06;;;17.30;44.54
9935;BME280;5006;41.828;23.478;2023-03-04T02:15:47;90085.47;;;18.07;43.28
9935;BME280;5006;41.828;23.478;2023-03-04T02:16:53;90085.22;;;18.14;43.10
9935;BME280;5006;41.828;23.478;2023-03-04T02:17:58;90088.06;;;18.11;43.14
9935;BME280;5006;41.828;23.478;2023-03-04T02:19:06;90078.63;;;18.28;43.08
9935;BME280;5006;41.828;23.478;2023-03-04T02:20:37;90087.81;;;18.30;42.94
9935;BME280;5006;41.828;23.478;2023-03-04T02:21:46;90089.31;;;18.44;42.25
9935;BME280;5006;41.828;23.478;2023-03-04T02:22:57;90085.94;;;17.56;43.51
9935;BME280;5006;41.828;23.478;2023-03-04T02:24:12;90090.59;;;17.02;44.23
9935;BME280;5006;41.828;23.478;2023-03-04T02:25:22;90088.31;;;16.88;44.63
9935;BME280;5006;41.828;23.478;2023-03-04T02:26:31;90083.25;;;15.85;46.16
9935;BME280;5006;41.828;23.478;2023-03-04T02:27:37;90081.56;;;16.80;45.73
9935;BME280;5006;41.828;23.478;2023-03-04T02:28:43;90080.59;;;16.87;45.13
9935;BME280;5006;41.828;23.478;2023-03-04T02:29:48;90083.13;;;17.59;44.08
9935;BME280;5006;41.828;23.478;2023-03-04T02:30:54;90082.41;;;16.77;45.41
9935;BME280;5006;41.828;23.478;2023-03-04T02:31:59;90084.69;;;16.79;45.05
9935;BME280;5006;41.828;23.478;2023-03-04T02:33:05;90086.50;;;16.69;45.73
9935;BME280;5006;41.828;23.478;2023-03-04T02:34:12;90083.66;;;17.67;44.52
9935;BME280;5006;41.828;23.478;2023-03-04T02:35:19;90084.97;;;17.50;44.36
9935;BME280;5006;41.828;23.478;2023-03-04T02:36:25;90083.13;;;17.06;45.15
9935;BME280;5006;41.828;23.478;2023-03-04T02:37:30;90081.34;;;18.03;44.19
9935;BME280;5006;41.828;23.478;2023-03-04T02:38:35;90082.91;;;18.72;42.61
9935;BME280;5006;41.828;23.478;2023-03-04T02:39:42;90081.06;;;18.47;43.04
9935;BME280;5006;41.828;23.478;2023-03-04T02:40:50;90088.75;;;17.90;43.89
9935;BME280;5006;41.828;23.478;2023-03-04T02:41:59;90089.47;;;18.28;43.30
9935;BME280;5006;41.828;23.478;2023-03-04T02:43:08;90086.22;;;18.08;44.10
9935;BME280;5006;41.828;23.478;2023-03-04T02:44:16;90079.81;;;18.14;43.46
9935;BME280;5006;41.828;23.478;2023-03-04T02:45:35;90087.56;;;18.50;43.17
9935;BME280;5006;41.828;23.478;2023-03-04T02:46:42;90079.50;;;18.80;42.51
9935;BME280;5006;41.828;23.478;2023-03-04T02:47:48;90083.41;;;18.58;42.42
9935;BME280;5006;41.828;23.478;2023-03-04T02:48:52;90083.16;;;18.18;43.31
9935;BME280;5006;41.828;23.478;2023-03-04T02:49:58;90083.84;;;18.56;42.91
9935;BME280;5006;41.828;23.478;2023-03-04T02:51:03;90080.81;;;18.76;42.60
9935;BME280;5006;41.828;23.478;2023-03-04T02:52:13;90082.19;;;19.36;41.72
9935;BME280;5006;41.828;23.478;2023-03-04T02:53:19;90075.00;;;18.18;42.76
9935;BME280;5006;41.828;23.478;2023-03-04T02:54:25;90082.34;;;17.96;43.54
9935;BME280;5006;41.828;23.478;2023-03-04T02:55:30;90084.75;;;17.04;44.82
9935;BME280;5006;41.828;23.478;2023-03-04T02:56:36;90088.97;;;17.83;44.19
9935;BME280;5006;41.828;23.478;2023-03-04T02:57:43;90087.56;;;18.50;43.58
9935;BME280;5006;41.828;23.478;2023-03-04T02:58:47;90086.31;;;18.63;42.97
9935;BME280;5006;41.828;23.478;2023-03-04T02:59:53;90079.75;;;18.52;42.85
9935;BME280;5006;41.828;23.478;2023-03-04T03:01:01;90075.16;;;18.15;43.23
9935;BME280;5006;41.828;23.478;2023-03-04T03:02:07;90073.81;;;18.32;42.81
9935;BME280;5006;41.828;23.478;2023-03-04T03:03:12;90077.66;;;17.97;43.27
9935;BME280;5006;41.828;23.478;2023-03-04T03:04:18;90081.22;;;17.32;44.21
9935;BME280;5006;41.828;23.478;2023-03-04T03:05:25;90079.53;;;16.97;45.04
9935;BME280;5006;41.828;23.478;2023-03-04T03:06:32;90080.75;;;16.67;45.29
9935;BME280;5006;41.828;23.478;2023-03-04T03:07:37;90084.56;;;16.25;46.33
9935;BME280;5006;41.828;23.478;2023-03-04T03:08:43;90085.69;;;16.97;45.16
9935;BME280;5006;41.828;23.478;2023-03-04T03:09:48;90083.16;;;17.19;44.56
9935;BME280;5006;41.828;23.478;2023-03-04T03:10:55;90081.97;;;18.07;43.99
9935;BME280;5006;41.828;23.478;2023-03-04T03:12:01;90066.47;;;17.95;43.63
9935;BME280;5006;41.828;23.478;2023-03-04T03:13:10;90066.66;;;18.13;43.67
9935;BME280;5006;41.828;23.478;2023-03-04T03:14:14;90074.44;;;17.52;44.37
9935;BME280;5006;41.828;23.478;2023-03-04T03:15:21;90075.28;;;17.74;43.97
9935;BME280;5006;41.828;23.478;2023-03-04T03:16:26;90078.88;;;17.46;44.22
9935;BME280;5006;41.828;23.478;2023-03-04T03:17:31;90078.00;;;17.37;44.30
9935;BME280;5006;41.828;23.478;2023-03-04T03:18:36;90076.19;;;17.05;45.22
9935;BME280;5006;41.828;23.478;2023-03-04T03:19:43;90073.25;;;16.87;45.31
9935;BME280;5006;41.828;23.478;2023-03-04T03:20:47;90081.22;;;14.28;48.96
9935;BME280;5006;41.828;23.478;2023-03-04T03:21:53;90082.50;;;13.55;50.72
9935;BME280;5006;41.828;23.478;2023-03-04T03:22:58;90078.78;;;13.45;51.26
9935;BME280;5006;41.828;23.478;2023-03-04T03:24:04;90078.13;;;14.07;50.61
9935;BME280;5006;41.828;23.478;2023-03-04T03:25:10;90070.41;;;16.34;46.81
9935;BME280;5006;41.828;23.478;2023-03-04T03:26:17;90077.44;;;17.29;44.92
9935;BME280;5006;41.828;23.478;2023-03-04T03:27:22;90068.25;;;17.39;44.80
9935;BME280;5006;41.828;23.478;2023-03-04T03:28:30;90077.69;;;17.59;44.23
9935;BME280;5006;41.828;23.478;2023-03-04T03:29:34;90075.72;;;17.85;44.04
9935;BME280;5006;41.828;23.478;2023-03-04T03:30:40;90073.88;;;16.91;44.63
9935;BME280;5006;41.828;23.478;2023-03-04T03:31:45;90071.69;;;17.27;45.13
9935;BME280;5006;41.828;23.478;2023-03-04T03:32:51;90074.53;;;17.36;44.34
9935;BME280;5006;41.828;23.478;2023-03-04T03:33:55;90078.69;;;17.00;45.36
9935;BME280;5006;41.828;23.478;2023-03-04T03:35:00;90078.41;;;17.23;44.76
9935;BME280;5006;41.828;23.478;2023-03-04T03:36:07;90077.13;;;17.89;43.73
9935;BME280;5006;41.828;23.478;2023-03-04T03:37:13;90077.69;;;18.43;43.39
9935;BME280;5006;41.828;23.478;2023-03-04T03:38:18;90073.13;;;18.53;42.81
9935;BME280;5006;41.828;23.478;2023-03-04T03:39:23;90077.91;;;17.90;43.36
9935;BME280;5006;41.828;23.478;2023-03-04T03:40:28;90073.75;;;18.57;43.15
9935;BME280;5006;41.828;23.478;2023-03-04T03:41:33;90067.59;;;16.94;44.20
9935;BME280;5006;41.828;23.478;2023-03-04T03:42:38;90083.00;;;19.02;42.16
9935;BME280;5006;41.828;23.478;2023-03-04T03:43:45;90078.44;;;17.85;43.43
9935;BME280;5006;41.828;23.478;2023-03-04T03:44:50;90079.13;;;17.23;44.28
9935;BME280;5006;41.828;23.478;2023-03-04T03:45:55;90074.34;;;16.61;45.77
9935;BME280;5006;41.828;23.478;2023-03-04T03:47:00;90080.41;;;17.59;44.05
9935;BME280;5006;41.828;23.478;2023-03-04T03:48:06;90068.44;;;18.53;42.88
9935;BME280;5006;41.828;23.478;2023-03-04T03:49:10;90070.66;;;18.67;42.78
9935;BME280;5006;41.828;23.478;2023-03-04T03:50:16;90077.72;;;18.31;42.73
9935;BME280;5006;41.828;23.478;2023-03-04T03:51:21;90076.16;;;17.46;43.96
9935;BME280;5006;41.828;23.478;2023-03-04T03:52:27;90076.47;;;17.48;43.97
9935;BME280;5006;41.828;23.478;2023-03-04T03:53:31;90074.28;;;17.31;43.99
9935;BME280;5006;41.828;23.478;2023-03-04T03:54:37;90078.22;;;17.92;43.44
9935;BME280;5006;41.828;23.478;2023-03-04T03:55:42;90083.00;;;18.47;42.67
9935;BME280;5006;41.828;23.478;2023-03-04T03:56:47;90074.94;;;17.97;42.99
9935;BME280;5006;41.828;23.478;2023-03-04T03:57:53;90083.44;;;17.86;43.15
9935;BME280;5006;41.828;23.478;2023-03-04T03:58:59;90079.66;;;17.47;44.44
9935;BME280;5006;41.828;23.478;2023-03-04T04:00:06;90090.13;;;18.07;43.13
9935;BME280;5006;41.828;23.478;2023-03-04T04:01:16;90086.31;;;18.17;43.04
9935;BME280;5006;41.828;23.478;2023-03-04T04:02:21;90086.28;;;18.42;42.60
9935;BME280;5006;41.828;23.478;2023-03-04T04:03:26;90091.75;;;18.04;43.12
9935;BME280;5006;41.828;23.478;2023-03-04T04:04:32;90083.28;;;18.02;43.51
9935;BME280;5006;41.828;23.478;2023-03-04T04:05:37;90087.56;;;17.66;43.56
9935;BME280;5006;41.828;23.478;2023-03-04T04:06:42;90088.81;;;18.36;42.80
9935;BME280;5006;41.828;23.478;2023-03-04T04:07:48;90085.66;;;18.13;43.43
9935;BME280;5006;41.828;23.478;2023-03-04T04:08:53;90087.53;;;18.62;42.48
9935;BME280;5006;41.828;23.478;2023-03-04T04:09:58;90090.19;;;18.75;42.28
9935;BME280;5006;41.828;23.478;2023-03-04T04:11:03;90090.84;;;19.22;41.74
9935;BME280;5006;41.828;23.478;2023-03-04T04:12:10;90091.06;;;19.15;41.55
9935;BME280;5006;41.828;23.478;2023-03-04T04:13:16;90093.47;;;19.56;40.87
9935;BME280;5006;41.828;23.478;2023-03-04T04:14:23;90079.53;;;19.54;40.86
9935;BME280;5006;41.828;23.478;2023-03-04T04:15:28;90093.00;;;19.57;40.78
9935;BME280;5006;41.828;23.478;2023-03-04T04:16:35;90089.41;;;19.30;41.33
9935;BME280;5006;41.828;23.478;2023-03-04T04:17:40;90090.88;;;18.66;42.65
9935;BME280;5006;41.828;23.478;2023-03-04T04:18:45;90091.38;;;18.74;42.47
9935;BME280;5006;41.828;23.478;2023-03-04T04:19:49;90094.44;;;18.29;43.11
9935;BME280;5006;41.828;23.478;2023-03-04T04:20:55;90093.88;;;19.02;42.28
9935;BME280;5006;41.828;23.478;2023-03-04T04:22:00;90089.16;;;17.39;44.21
9935;BME280;5006;41.828;23.478;2023-03-04T04:23:06;90087.91;;;17.02;44.73
9935;BME280;5006;41.828;23.478;2023-03-04T04:24:11;90090.16;;;16.91;45.78
9935;BME280;5006;41.828;23.478;2023-03-04T04:25:17;90086.13;;;17.49;44.22
9935;BME280;5006;41.828;23.478;2023-03-04T04:26:22;90090.72;;;17.52;44.28
9935;BME280;5006;41.828;23.478;2023-03-04T04:27:27;90091.16;;;17.63;44.01
9935;BME280;5006;41.828;23.478;2023-03-04T04:28:32;90085.16;;;17.93;43.64
9935;BME280;5006;41.828;23.478;2023-03-04T04:29:39;90093.63;;;18.07;43.36
9935;BME280;5006;41.828;23.478;2023-03-04T04:30:44;90094.69;;;18.10;43.38
9935;BME280;5006;41.828;23.478;2023-03-04T04:31:50;90092.72;;;18.35;43.23
9935;BME280;5006;41.828;23.478;2023-03-04T04:32:54;90090.13;;;18.07;43.42
9935;BME280;5006;41.828;23.478;2023-03-04T04:34:00;90089.72;;;17.71;43.96
9935;BME280;5006;41.828;23.478;2023-03-04T04:35:06;90092.66;;;17.76;44.17
9935;BME280;5006;41.828;23.478;2023-03-04T04:36:13;90096.31;;;17.95;43.65
9935;BME280;5006;41.828;23.478;2023-03-04T04:37:18;90097.81;;;18.33;43.24
9935;BME280;5006;41.828;23.478;2023-03-04T04:38:24;90097.56;;;18.53;42.97
9935;BME280;5006;41.828;23.478;2023-03-04T04:39:29;90104.34;;;18.11;43.26
9935;BME280;5006;41.828;23.478;2023-03-04T04:40:35;90098.56;;;15.92;46.13
9935;BME280;5006;41.828;23.478;2023-03-04T04:41:41;90107.97;;;16.76;46.76
9935;BME280;5006;41.828;23.478;2023-03-04T04:42:47;90098.88;;;17.24;45.29
9935;BME280;5006;41.828;23.478;2023-03-04T04:43:52;90087.06;;;18.64;43.22
9935;BME280;5006;41.828;23.478;2023-03-04T04:44:59;90090.19;;;18.41;43.07
9935;BME280;5006;41.828;23.478;2023-03-04T04:46:04;90087.31;;;19.34;41.97
9935;BME280;5006;41.828;23.478;2023-03-04T04:47:09;90098.53;;;19.02;42.28
9935;BME280;5006;41.828;23.478;2023-03-04T04:48:14;90087.81;;;18.98;41.98
9935;BME280;5006;41.828;23.478;2023-03-04T04:49:38;90099.03;;;15.87;46.59
9935;BME280;5006;41.828;23.478;2023-03-04T04:50:44;90094.63;;;15.77;47.16
9935;BME280;5006;41.828;23.478;2023-03-04T04:51:49;90094.91;;;15.50;47.82
9935;BME280;5006;41.828;23.478;2023-03-04T04:52:55;90094.22;;;17.24;46.59
9935;BME280;5006;41.828;23.478;2023-03-04T04:54:00;90095.53;;;18.32;43.87
9935;BME280;5006;41.828;23.478;2023-03-04T04:55:06;90098.25;;;18.32;43.58
9935;BME280;5006;41.828;23.478;2023-03-04T04:56:13;90102.25;;;18.74;43.04
9935;BME280;5006;41.828;23.478;2023-03-04T04:57:18;90104.63;;;15.80;45.67
9935;BME280;5006;41.828;23.478;2023-03-04T04:58:23;90104.28;;;15.26;48.27
9935;BME280;5006;41.828;23.478;2023-03-04T04:59:29;90095.97;;;15.37;47.83
9935;BME280;5006;41.828;23.478;2023-03-04T05:00:35;90103.06;;;15.12;48.22
9935;BME280;5006;41.828;23.478;2023-03-04T05:01:41;90097.69;;;15.27;48.04
9935;BME280;5006;41.828;23.478;2023-03-04T05:02:45;90103.06;;;15.12;48.78
9935;BME280;5006;41.828;23.478;2023-03-04T05:03:51;90103.78;;;14.77;49.29
9935;BME280;5006;41.828;23.478;2023-03-04T05:04:56;90104.00;;;14.27;50.13
9935;BME280;5006;41.828;23.478;2023-03-04T05:06:03;90104.75;;;14.86;49.48
9935;BME280;5006;41.828;23.478;2023-03-04T05:07:08;90104.53;;;15.51;47.86
9935;BME280;5006;41.828;23.478;2023-03-04T05:08:14;90105.69;;;15.50;48.16
9935;BME280;5006;41.828;23.478;2023-03-04T05:09:19;90100.47;;;14.89;49.07
9935;BME280;5006;41.828;23.478;2023-03-04T05:10:26;90103.94;;;15.24;48.68
9935;BME280;5006;41.828;23.478;2023-03-04T05:11:31;90101.31;;;16.04;47.70
9935;BME280;5006;41.828;23.478;2023-03-04T05:12:37;90104.72;;;15.60;48.21
9935;BME280;5006;41.828;23.478;2023-03-04T05:13:41;90106.03;;;15.68;48.31
9935;BME280;5006;41.828;23.478;2023-03-04T05:14:46;90099.06;;;16.03;47.40
9935;BME280;5006;41.828;23.478;2023-03-04T05:15:55;90103.00;;;15.82;47.94
9935;BME280;5006;41.828;23.478;2023-03-04T05:17:02;90110.69;;;15.52;48.55
9935;BME280;5006;41.828;23.478;2023-03-04T05:18:07;90110.00;;;14.93;49.57
9935;BME280;5006;41.828;23.478;2023-03-04T05:19:12;90108.16;;;15.77;48.14
9935;BME280;5006;41.828;23.478;2023-03-04T05:20:18;90098.28;;;16.02;47.93
9935;BME280;5006;41.828;23.478;2023-03-04T05:21:23;90100.38;;;16.11;47.78
9935;BME280;5006;41.828;23.478;2023-03-04T05:22:30;90105.88;;;16.39;47.48
9935;BME280;5006;41.828;23.478;2023-03-04T05:23:36;90101.50;;;15.65;48.34
9935;BME280;5006;41.828;23.478;2023-03-04T05:24:42;90111.38;;;15.56;48.25
9935;BME280;5006;41.828;23.478;2023-03-04T05:25:48;90112.19;;;15.37;48.79
9935;BME280;5006;41.828;23.478;2023-03-04T05:26:53;90109.09;;;15.00;49.66
9935;BME280;5006;41.828;23.478;2023-03-04T05:27:58;90108.47;;;15.12;49.50
9935;BME280;5006;41.828;23.478;2023-03-04T05:29:05;90103.31;;;15.36;49.50
9935;BME280;5006;41.828;23.478;2023-03-04T05:30:11;90100.66;;;15.84;48.40
9935;BME280;5006;41.828;23.478;2023-03-04T05:31:18;90107.41;;;15.60;48.67
9935;BME280;5006;41.828;23.478;2023-03-04T05:32:22;90105.28;;;15.52;48.67
9935;BME280;5006;41.828;23.478;2023-03-04T05:33:29;90106.19;;;14.91;49.61
9935;BME280;5006;41.828;23.478;2023-03-04T05:34:33;90107.03;;;15.07;49.70
9935;BME280;5006;41.828;23.478;2023-03-04T05:35:41;90104.63;;;14.74;50.19
9935;BME280;5006;41.828;23.478;2023-03-04T05:36:46;90109.75;;;15.23;49.71
9935;BME280;5006;41.828;23.478;2023-03-04T05:37:52;90109.75;;;15.23;49.59
9935;BME280;5006;41.828;23.478;2023-03-04T05:38:57;90108.25;;;17.60;45.94
9935;BME280;5006;41.828;23.478;2023-03-04T05:40:03;90109.22;;;18.16;44.65
9935;BME280;5006;41.828;23.478;2023-03-04T05:41:08;90108.16;;;18.60;44.11
9935;BME280;5006;41.828;23.478;2023-03-04T05:42:13;90116.44;;;19.12;43.01
9935;BME280;5006;41.828;23.478;2023-03-04T05:43:18;90107.28;;;18.63;43.64
9935;BME280;5006;41.828;23.478;2023-03-04T05:44:25;90112.59;;;19.00;43.26
9935;BME280;5006;41.828;23.478;2023-03-04T05:45:30;90114.13;;;18.08;44.12
9935;BME280;5006;41.828;23.478;2023-03-04T05:46:38;90114.00;;;19.26;42.98
9935;BME280;5006;41.828;23.478;2023-03-04T05:47:42;90112.69;;;18.75;43.63
9935;BME280;5006;41.828;23.478;2023-03-04T05:48:48;90109.09;;;19.00;43.56
9935;BME280;5006;41.828;23.478;2023-03-04T05:49:53;90110.75;;;16.28;47.17
9935;BME280;5006;41.828;23.478;2023-03-04T05:50:59;90116.47;;;16.62;46.76
9935;BME280;5006;41.828;23.478;2023-03-04T05:52:04;90118.84;;;18.76;44.46
9935;BME280;5006;41.828;23.478;2023-03-04T05:53:10;90117.41;;;19.39;43.80
9935;BME280;5006;41.828;23.478;2023-03-04T05:54:14;90112.97;;;19.33;42.97